Time;durP1;ratioP1;P1;durP2;ratioP2;P2;SDS_P1;SDS_P2;PMS_P1;PMS_P2;Temp;Humidity;BMP_temperature;BMP_pressure;BME280_temperature;BME280_humidity;BME280_pressure;Samples;Min_cycle;Max_cycle;Signal;HPM_P1;HPM_P2
2023/06/09 06:18:58;;;;;;;9.02;8.02;;;;;;;;;;10550764;28;20051;-82
2023/06/09 06:41:47;;;;;;;11.13;7.95;;;;;;;;;;10585599;28;20047;-84
2023/06/09 06:59:01;;;;;;;10.25;8.35;;;;;;;;;;10571434;28;20040;-81
2023/06/09 07:04:04;;;;;;;12.43;9.75;;;;;;;;;;10551799;28;20032;-81
2023/06/09 07:09:08;;;;;;;7.85;6.53;;;;;;;;;;10551210;28;20032;-81
2023/06/09 07:14:10;;;;;;;10.80;9.70;;;;;;;;;;10530585;28;20511;-81
2023/06/09 07:19:11;;;;;;;11.10;9.90;;;;;;;;;;10546395;28;20136;-77
2023/06/09 07:24:12;;;;;;;13.15;10.48;;;;;;;;;;10550152;28;20092;-81
2023/06/09 07:29:13;;;;;;;8.55;7.50;;;;;;;;;;10567387;28;20038;-80
2023/06/09 07:34:14;;;;;;;8.88;7.93;;;;;;;;;;10590715;28;20031;-80
2023/06/09 07:39:15;;;;;;;10.63;9.50;;;;;;;;;;10554282;28;20028;-79
2023/06/09 07:49:42;;;;;;;9.80;8.85;;;;;;;;;;10550821;28;20028;-80
2023/06/09 07:54:43;;;;;;;10.52;9.02;;;;;;;;;;10540247;28;20035;-79
2023/06/09 07:59:46;;;;;;;11.05;9.23;;;;;;;;;;10541636;28;20030;-80
2023/06/09 08:04:47;;;;;;;8.65;7.82;;;;;;;;;;10523943;28;20027;-78
2023/06/09 08:09:48;;;;;;;9.77;8.77;;;;;;;;;;10538674;28;20071;-78
2023/06/09 08:14:49;;;;;;;10.00;8.38;;;;;;;;;;10539891;28;20023;-79
2023/06/09 08:19:50;;;;;;;9.43;8.55;;;;;;;;;;10540309;28;20122;-79
2023/06/09 08:24:51;;;;;;;12.45;9.88;;;;;;;;;;10539634;28;20118;-78
2023/06/09 08:29:53;;;;;;;8.43;7.45;;;;;;;;;;10540467;28;20501;-78
2023/06/09 08:34:55;;;;;;;9.73;8.57;;;;;;;;;;10541315;28;20032;-79
2023/06/09 08:39:57;;;;;;;9.05;8.13;;;;;;;;;;10543360;28;20412;-79
2023/06/09 08:45:01;;;;;;;7.90;7.20;;;;;;;;;;10542440;28;20121;-81
2023/06/09 08:50:04;;;;;;;10.77;7.82;;;;;;;;;;10541419;28;20028;-79
2023/06/09 08:55:06;;;;;;;9.38;8.10;;;;;;;;;;10546619;28;20031;-79
2023/06/09 09:00:12;;;;;;;10.95;8.40;;;;;;;;;;10542289;28;20024;-79
2023/06/09 09:05:13;;;;;;;9.05;8.15;;;;;;;;;;10543670;28;20016;-79
2023/06/09 09:10:14;;;;;;;8.13;6.65;;;;;;;;;;10543480;28;20024;-81
2023/06/09 09:15:15;;;;;;;7.55;6.85;;;;;;;;;;10543949;28;20046;-82
2023/06/09 09:20:17;;;;;;;7.68;6.95;;;;;;;;;;10545372;28;20028;-81
2023/06/09 09:25:22;;;;;;;7.10;6.40;;;;;;;;;;10544543;28;20055;-82
2023/06/09 09:30:42;;;;;;;10.70;6.50;;;;;;;;;;10549349;28;20107;-83
2023/06/09 09:35:44;;;;;;;9.63;6.90;;;;;;;;;;10540534;28;20028;-82
2023/06/09 09:46:40;;;;;;;8.40;7.20;;;;;;;;;;10546707;28;20531;-82
2023/06/09 09:51:41;;;;;;;9.15;7.22;;;;;;;;;;10540616;28;20032;-83
2023/06/09 09:56:42;;;;;;;6.95;6.30;;;;;;;;;;10557462;28;20032;-82
2023/06/09 10:01:46;;;;;;;7.00;6.07;;;;;;;;;;10553800;28;20439;-82
2023/06/09 10:06:48;;;;;;;6.32;5.70;;;;;;;;;;10540602;28;20039;-81
2023/06/09 10:11:55;;;;;;;6.55;5.95;;;;;;;;;;10544165;28;20039;-82
2023/06/09 10:16:57;;;;;;;8.18;6.50;;;;;;;;;;10540547;28;20033;-81
2023/06/09 10:21:58;;;;;;;9.98;9.07;;;;;;;;;;10541626;28;20462;-82
2023/06/09 10:26:59;;;;;;;7.03;6.22;;;;;;;;;;10546691;28;20028;-81
2023/06/09 10:32:01;;;;;;;7.57;6.82;;;;;;;;;;10548113;28;20020;-81
2023/06/09 10:37:02;;;;;;;7.20;6.50;;;;;;;;;;10547435;28;20024;-81
2023/06/09 10:42:19;;;;;;;7.00;6.10;;;;;;;;;;10547492;28;20024;-81
2023/06/09 10:47:52;;;;;;;6.93;6.00;;;;;;;;;;10552583;28;20036;-81
2023/06/09 10:52:54;;;;;;;6.57;5.70;;;;;;;;;;10486023;28;20042;-81
2023/06/09 10:57:55;;;;;;;6.40;5.80;;;;;;;;;;10564627;28;20049;-81
2023/06/09 11:03:09;;;;;;;6.95;6.18;;;;;;;;;;10582280;28;20024;-82
2023/06/09 11:08:11;;;;;;;7.35;6.40;;;;;;;;;;10575634;28;20106;-81
2023/06/09 11:13:44;;;;;;;14.07;8.70;;;;;;;;;;10550588;28;20032;-80
2023/06/09 11:18:45;;;;;;;7.38;5.72;;;;;;;;;;10525959;28;20511;-80
2023/06/09 11:24:03;;;;;;;5.88;5.35;;;;;;;;;;10545904;28;20127;-81
2023/06/09 11:29:17;;;;;;;6.63;5.95;;;;;;;;;;10551613;28;20038;-80
2023/06/09 11:34:36;;;;;;;6.22;5.60;;;;;;;;;;10548875;28;20058;-81
2023/06/09 11:39:45;;;;;;;6.40;5.72;;;;;;;;;;10548012;28;20067;-80
2023/06/09 11:44:47;;;;;;;9.05;6.50;;;;;;;;;;10543681;28;20110;-81
2023/06/09 11:49:48;;;;;;;7.95;7.18;;;;;;;;;;10542586;28;20036;-80
2023/06/09 11:54:49;;;;;;;7.55;6.00;;;;;;;;;;10549836;28;20114;-81
2023/06/09 11:59:50;;;;;;;7.03;6.30;;;;;;;;;;10552674;28;20453;-80
2023/06/09 12:04:52;;;;;;;8.55;7.28;;;;;;;;;;10546140;28;20020;-81
2023/06/09 12:09:57;;;;;;;7.43;6.80;;;;;;;;;;10576039;22;20081;-86
2023/06/09 12:21:08;;;;;;;6.88;6.20;;;;;;;;;;10561123;28;20087;-85
2023/06/09 12:26:20;;;;;;;7.65;6.75;;;;;;;;;;10571489;28;20091;-85
2023/06/09 12:31:36;;;;;;;7.57;6.72;;;;;;;;;;10595700;28;20035;-87
2023/06/09 12:36:40;;;;;;;9.43;6.90;;;;;;;;;;10534365;28;20114;-87
2023/06/09 12:41:41;;;;;;;9.00;6.75;;;;;;;;;;10574098;28;20447;-87
2023/06/09 12:46:42;;;;;;;7.57;6.88;;;;;;;;;;10571217;28;20046;-87
2023/06/09 12:51:44;;;;;;;9.40;8.50;;;;;;;;;;10582503;28;20428;-87
2023/06/09 12:56:45;;;;;;;9.82;6.60;;;;;;;;;;10566393;28;20028;-87
2023/06/09 13:01:47;;;;;;;6.78;5.82;;;;;;;;;;10567848;28;20356;-87
2023/06/09 13:06:48;;;;;;;9.20;6.38;;;;;;;;;;10572362;28;20028;-85
2023/06/09 13:11:49;;;;;;;6.30;5.70;;;;;;;;;;10570381;28;20038;-86
2023/06/09 13:16:51;;;;;;;6.93;6.05;;;;;;;;;;10570910;28;20478;-86
2023/06/09 13:21:52;;;;;;;7.25;6.50;;;;;;;;;;10576549;28;20046;-85
2023/06/09 13:26:53;;;;;;;7.55;6.50;;;;;;;;;;10574207;28;20359;-86
2023/06/09 13:31:54;;;;;;;6.25;5.65;;;;;;;;;;10568125;28;20032;-86
2023/06/09 13:36:55;;;;;;;8.95;6.03;;;;;;;;;;10568491;28;20055;-86
2023/06/09 13:41:56;;;;;;;6.97;6.30;;;;;;;;;;10572381;28;20123;-85
2023/06/09 13:46:57;;;;;;;6.70;6.10;;;;;;;;;;10572171;28;20114;-86
2023/06/09 13:51:58;;;;;;;8.05;6.35;;;;;;;;;;10578100;28;20077;-89
2023/06/09 13:56:59;;;;;;;6.97;6.28;;;;;;;;;;10572155;28;20027;-84
2023/06/09 14:02:00;;;;;;;7.57;6.22;;;;;;;;;;10569856;28;20059;-84
2023/06/09 14:07:01;;;;;;;7.18;6.40;;;;;;;;;;10573883;28;20020;-83
2023/06/09 14:12:03;;;;;;;7.47;6.20;;;;;;;;;;10580471;28;20096;-85
2023/06/09 14:17:04;;;;;;;8.65;7.75;;;;;;;;;;10579422;28;20062;-86
2023/06/09 14:22:05;;;;;;;6.53;5.93;;;;;;;;;;10596052;28;20020;-85
2023/06/09 14:27:07;;;;;;;8.20;7.38;;;;;;;;;;10582413;28;20024;-85
2023/06/09 14:32:08;;;;;;;7.22;6.45;;;;;;;;;;10576318;28;20046;-85
2023/06/09 14:37:09;;;;;;;7.13;6.45;;;;;;;;;;10598849;28;20027;-86
2023/06/09 14:42:11;;;;;;;7.63;6.72;;;;;;;;;;10593338;28;20020;-86
2023/06/09 14:47:12;;;;;;;9.38;6.95;;;;;;;;;;10576630;28;20077;-86
2023/06/09 14:52:13;;;;;;;11.02;9.73;;;;;;;;;;10575445;28;20058;-87
2023/06/09 14:57:14;;;;;;;7.32;6.72;;;;;;;;;;10574169;28;20147;-85
2023/06/09 15:02:15;;;;;;;8.02;6.30;;;;;;;;;;10573735;28;20039;-87
2023/06/09 15:07:16;;;;;;;7.22;6.32;;;;;;;;;;10575555;28;20027;-86
2023/06/09 15:12:17;;;;;;;8.75;6.30;;;;;;;;;;10575596;28;20042;-87
2023/06/09 15:17:18;;;;;;;7.35;6.65;;;;;;;;;;10579956;28;20031;-86
2023/06/09 15:22:20;;;;;;;8.10;6.50;;;;;;;;;;10589464;28;20015;-87
2023/06/09 15:27:21;;;;;;;7.20;6.40;;;;;;;;;;10574291;28;20043;-85
2023/06/09 15:32:22;;;;;;;9.10;6.25;;;;;;;;;;10572525;28;20030;-87
2023/06/09 15:37:23;;;;;;;10.02;6.65;;;;;;;;;;10569929;28;20475;-86
2023/06/09 15:42:24;;;;;;;7.70;7.00;;;;;;;;;;10572529;28;20383;-86
2023/06/09 15:47:27;;;;;;;8.20;7.40;;;;;;;;;;10570806;28;20122;-86
2023/06/09 15:52:28;;;;;;;8.65;6.18;;;;;;;;;;10571919;28;20032;-88
2023/06/09 15:57:29;;;;;;;8.95;6.45;;;;;;;;;;10572226;28;20088;-86
2023/06/09 16:02:30;;;;;;;8.63;6.93;;;;;;;;;;10569424;28;20023;-86
2023/06/09 16:07:31;;;;;;;7.38;6.30;;;;;;;;;;10570289;28;20023;-87
2023/06/09 16:12:32;;;;;;;8.85;6.20;;;;;;;;;;10570582;28;20562;-85
2023/06/09 16:17:33;;;;;;;7.60;5.82;;;;;;;;;;10590520;28;20026;-86
2023/06/09 16:22:34;;;;;;;8.57;6.18;;;;;;;;;;10579041;28;20372;-86
2023/06/09 16:27:35;;;;;;;6.65;5.88;;;;;;;;;;10619087;27;20008;-85
2023/06/09 16:32:36;;;;;;;6.30;5.70;;;;;;;;;;10581899;28;20069;-85
2023/06/09 16:37:37;;;;;;;7.32;6.63;;;;;;;;;;10567575;28;20027;-85
2023/06/09 16:42:38;;;;;;;9.30;5.95;;;;;;;;;;10568942;28;20019;-85
2023/06/09 16:47:39;;;;;;;6.90;5.57;;;;;;;;;;10570729;28;20115;-86
2023/06/09 16:52:40;;;;;;;6.40;5.80;;;;;;;;;;10573944;28;20471;-86
2023/06/09 16:57:41;;;;;;;7.22;6.53;;;;;;;;;;10567560;28;20023;-86
2023/06/09 17:02:43;;;;;;;12.75;6.72;;;;;;;;;;10569548;28;20024;-86
2023/06/09 17:07:44;;;;;;;6.25;5.57;;;;;;;;;;10566923;28;20047;-86
2023/06/09 17:12:45;;;;;;;6.80;6.18;;;;;;;;;;10572080;28;20184;-86
2023/06/09 17:17:46;;;;;;;8.32;6.50;;;;;;;;;;10568308;28;20073;-85
2023/06/09 17:22:47;;;;;;;7.40;6.70;;;;;;;;;;10572485;28;20027;-86
2023/06/09 17:27:48;;;;;;;7.20;6.50;;;;;;;;;;10566711;28;20027;-85
2023/06/09 17:32:50;;;;;;;8.52;7.45;;;;;;;;;;10570453;28;20035;-86
2023/06/09 17:37:51;;;;;;;8.15;7.13;;;;;;;;;;10566133;28;20433;-86
2023/06/09 17:42:52;;;;;;;8.10;7.30;;;;;;;;;;10565830;28;20015;-86
2023/06/09 17:47:53;;;;;;;6.90;6.20;;;;;;;;;;10565469;28;20106;-86
2023/06/09 17:52:54;;;;;;;6.70;6.00;;;;;;;;;;10570494;28;20039;-86
2023/06/09 17:57:56;;;;;;;6.68;6.05;;;;;;;;;;10569147;28;20024;-86
2023/06/09 18:02:57;;;;;;;9.45;7.15;;;;;;;;;;10565420;28;20460;-86
2023/06/09 18:07:58;;;;;;;12.82;7.70;;;;;;;;;;10570213;28;20550;-84
2023/06/09 18:12:59;;;;;;;7.13;6.43;;;;;;;;;;10567902;28;20152;-87
2023/06/09 18:18:00;;;;;;;7.70;6.70;;;;;;;;;;10564697;28;20042;-87
2023/06/09 18:23:01;;;;;;;6.10;5.60;;;;;;;;;;10565934;28;20065;-87
2023/06/09 18:28:02;;;;;;;7.43;6.60;;;;;;;;;;10565294;28;20060;-87
2023/06/09 18:33:03;;;;;;;9.18;7.30;;;;;;;;;;10583077;28;20459;-87
2023/06/09 18:38:05;;;;;;;7.13;6.50;;;;;;;;;;10568518;28;20075;-87
2023/06/09 18:43:06;;;;;;;9.70;6.90;;;;;;;;;;10568488;28;20390;-87
2023/06/09 18:48:07;;;;;;;6.90;6.20;;;;;;;;;;10569613;28;20117;-87
2023/06/09 18:53:09;;;;;;;7.05;6.45;;;;;;;;;;10569843;28;20562;-89
2023/06/09 18:58:10;;;;;;;7.03;6.35;;;;;;;;;;10582156;28;20122;-88
2023/06/09 19:03:11;;;;;;;9.32;6.57;;;;;;;;;;10606302;28;20020;-88
2023/06/09 19:08:12;;;;;;;8.05;6.45;;;;;;;;;;10575750;28;20161;-87
2023/06/09 19:13:13;;;;;;;7.47;6.50;;;;;;;;;;10570763;28;20028;-87
